createdAt,value
2019-03-23T00:01:46.823Z,70.57
2019-03-23T00:04:16.666Z,66.67
2019-03-23T00:06:46.502Z,73.93
2019-03-23T00:09:16.340Z,71.17
2019-03-23T00:11:46.143Z,74.60
2019-03-23T00:14:15.988Z,67.07
2019-03-23T00:16:45.799Z,69.07
2019-03-23T00:19:15.621Z,71.37
2019-03-23T00:21:45.432Z,71.70
2019-03-23T00:24:15.259Z,66.67
2019-03-23T00:26:45.051Z,68.80
2019-03-23T00:29:14.891Z,59.53
2019-03-23T00:31:44.724Z,64.97
2019-03-23T00:34:14.568Z,63.30
2019-03-23T00:36:44.359Z,62.03
2019-03-23T00:39:14.180Z,64.37
2019-03-23T00:41:43.986Z,59.73
2019-03-23T00:44:13.799Z,68.13
2019-03-23T00:46:43.599Z,62.57
2019-03-23T00:49:13.418Z,67.77
2019-03-23T00:51:43.225Z,61.83
2019-03-23T00:54:13.053Z,64.27
2019-03-23T00:56:42.859Z,64.83
2019-03-23T00:59:12.703Z,63.67
2019-03-23T01:01:42.496Z,62.17
2019-03-23T01:04:12.331Z,58.97
2019-03-23T01:06:51.743Z,60.97
2019-03-23T01:09:13.657Z,61.30
2019-03-23T01:11:43.422Z,57.57
2019-03-23T01:14:13.255Z,66.03
2019-03-23T01:16:43.053Z,61.30
2019-03-23T01:19:12.915Z,62.27
2019-03-23T01:21:42.715Z,59.90
2019-03-23T01:24:12.509Z,66.77
2019-03-23T01:26:42.335Z,65.70
2019-03-23T01:29:12.143Z,62.77
2019-03-23T01:31:41.957Z,65.03
2019-03-23T01:34:11.745Z,66.43
2019-03-23T01:36:41.553Z,63.00
2019-03-23T01:39:11.373Z,62.67
2019-03-23T01:41:41.197Z,61.43
2019-03-23T01:44:10.975Z,63.10
2019-03-23T01:46:40.789Z,61.80
2019-03-23T01:49:10.572Z,59.47
2019-03-23T01:51:40.395Z,65.10
2019-03-23T01:54:10.229Z,65.27
2019-03-23T01:56:40.050Z,61.37
2019-03-23T01:59:09.885Z,62.03
2019-03-23T02:01:39.702Z,66.40
2019-03-23T02:04:09.636Z,68.07
2019-03-23T02:06:39.455Z,64.00
2019-03-23T02:09:09.233Z,72.87
2019-03-23T02:11:39.063Z,72.90
2019-03-23T02:14:08.838Z,67.17
2019-03-23T02:16:38.677Z,64.30
2019-03-23T02:19:08.517Z,67.67
2019-03-23T02:21:38.391Z,71.83
2019-03-23T02:24:08.240Z,62.57
2019-03-23T02:26:38.041Z,60.63
2019-03-23T02:29:07.826Z,67.07
2019-03-23T02:31:37.670Z,67.47
2019-03-23T02:34:07.539Z,66.37
2019-03-23T02:36:37.419Z,62.27
2019-03-23T02:39:07.889Z,66.27
2019-03-23T02:41:37.787Z,61.23
2019-03-23T02:44:07.586Z,67.57
2019-03-23T02:46:37.453Z,63.47
2019-03-23T02:49:07.257Z,60.40
2019-03-23T02:51:39.753Z,65.07
2019-03-23T02:54:08.676Z,61.43
2019-03-23T02:56:38.496Z,60.57
2019-03-23T02:59:08.285Z,59.60
2019-03-23T03:01:38.160Z,62.30
2019-03-23T03:04:07.976Z,57.17
2019-03-23T03:06:37.821Z,64.37
2019-03-23T03:09:08.117Z,49.10
2019-03-23T03:11:37.983Z,54.40
2019-03-23T03:14:07.820Z,53.27
2019-03-23T03:16:37.600Z,55.90
2019-03-23T03:19:07.443Z,65.33
2019-03-23T03:21:37.202Z,53.70
2019-03-23T03:24:07.015Z,51.47
2019-03-23T03:26:36.779Z,54.50
2019-03-23T03:29:06.600Z,49.80
2019-03-23T03:31:36.379Z,49.93
2019-03-23T03:34:06.217Z,54.73
2019-03-23T03:36:36.001Z,50.47
2019-03-23T03:39:07.958Z,56.20
2019-03-23T03:41:37.785Z,54.00
2019-03-23T03:44:07.609Z,49.83
2019-03-23T03:46:37.376Z,52.53
2019-03-23T03:49:12.587Z,63.00
2019-03-23T03:51:38.666Z,62.63
2019-03-23T03:54:08.522Z,60.33
2019-03-23T03:56:38.348Z,60.07
2019-03-23T03:59:08.179Z,60.80
2019-03-23T04:01:37.986Z,63.87
2019-03-23T04:04:07.807Z,50.03
2019-03-23T04:06:37.622Z,47.70
2019-03-23T04:09:08.128Z,47.17
2019-03-23T04:11:37.886Z,54.70
2019-03-23T04:14:07.695Z,49.33
2019-03-23T04:16:37.490Z,52.90
2019-03-23T04:19:07.312Z,50.93
2019-03-23T04:21:37.086Z,52.40
2019-03-23T04:24:06.899Z,67.40
2019-03-23T04:26:39.193Z,60.13
2019-03-23T04:29:08.231Z,52.40
2019-03-23T04:31:38.026Z,58.40
2019-03-23T04:34:07.869Z,58.80
2019-03-23T04:36:37.621Z,60.47
2019-03-23T04:39:07.762Z,56.83
2019-03-23T04:41:37.529Z,55.93
2019-03-23T04:44:07.357Z,57.73
2019-03-23T04:46:37.154Z,53.53
2019-03-23T04:49:06.933Z,52.90
2019-03-23T04:51:36.724Z,60.20
2019-03-23T04:54:06.716Z,55.03
2019-03-23T04:56:36.616Z,56.60
2019-03-23T04:59:06.468Z,56.00
2019-03-23T05:01:36.310Z,53.63
2019-03-23T05:04:06.268Z,50.63
2019-03-23T05:06:36.082Z,51.77
2019-03-23T05:09:07.680Z,50.67
2019-03-23T05:11:37.446Z,53.00
2019-03-23T05:14:07.281Z,54.10
2019-03-23T05:16:37.078Z,50.63
2019-03-23T05:19:06.894Z,53.57
2019-03-23T05:21:36.739Z,60.40
2019-03-23T05:24:06.510Z,55.33
2019-03-23T05:26:36.336Z,56.90
2019-03-23T05:29:06.172Z,57.97
2019-03-23T05:31:35.963Z,50.87
2019-03-23T05:34:05.812Z,50.20
2019-03-23T05:36:35.652Z,50.13
2019-03-23T05:39:06.931Z,59.13
2019-03-23T05:41:36.786Z,53.97
2019-03-23T05:44:06.620Z,53.53
2019-03-23T05:46:36.399Z,55.00
2019-03-23T05:49:06.221Z,62.03
2019-03-23T05:51:36.019Z,64.93
2019-03-23T05:54:05.851Z,59.07
2019-03-23T05:56:35.662Z,60.13
2019-03-23T05:59:05.508Z,63.83
2019-03-23T06:01:35.389Z,58.93
2019-03-23T06:04:05.282Z,70.37
2019-03-23T06:06:35.072Z,70.97
2019-03-23T06:09:06.544Z,72.17
2019-03-23T06:11:36.337Z,68.77
2019-03-23T06:14:06.306Z,76.60
2019-03-23T06:16:36.104Z,84.33
2019-03-23T06:19:05.953Z,76.50
2019-03-23T06:21:35.749Z,80.00
2019-03-23T06:24:05.654Z,80.93
2019-03-23T06:26:35.451Z,80.40
2019-03-23T06:29:05.307Z,79.43
2019-03-23T06:31:35.107Z,79.93
2019-03-23T06:34:05.142Z,81.90
2019-03-23T06:36:34.999Z,86.20
2019-03-23T06:39:06.692Z,88.33
2019-03-23T06:41:36.545Z,88.63
2019-03-23T06:44:06.359Z,88.87
2019-03-23T06:46:36.180Z,89.37
2019-03-23T06:49:07.581Z,81.47
2019-03-23T06:51:37.405Z,84.73
2019-03-23T06:54:07.295Z,83.47
2019-03-23T06:56:37.123Z,89.13
2019-03-23T06:59:07.043Z,88.90
2019-03-23T07:01:38.826Z,80.27
2019-03-23T07:04:08.703Z,80.53
2019-03-23T07:06:38.628Z,75.57
2019-03-23T07:09:16.081Z,78.73
2019-03-23T07:11:40.267Z,89.17
2019-03-23T07:14:10.205Z,78.33
2019-03-23T07:16:40.026Z,71.77
2019-03-23T07:19:09.873Z,74.60
2019-03-23T07:21:39.725Z,77.70
2019-03-23T07:24:09.564Z,73.27
2019-03-23T07:26:39.413Z,80.07
2019-03-23T07:29:09.231Z,69.13
2019-03-23T07:31:39.117Z,74.93
2019-03-23T07:34:08.931Z,67.57
2019-03-23T07:36:38.752Z,81.23
2019-03-23T07:39:09.075Z,81.67
2019-03-23T07:41:38.926Z,70.50
2019-03-23T07:44:08.757Z,72.20
2019-03-23T07:46:38.618Z,61.90
2019-03-23T07:49:08.380Z,73.93
2019-03-23T07:51:38.202Z,70.40
2019-03-23T07:54:07.986Z,78.30
2019-03-23T07:56:37.822Z,72.43
2019-03-23T07:59:07.635Z,80.00
2019-03-23T08:01:37.474Z,72.73
2019-03-23T08:04:07.340Z,61.27
2019-03-23T08:06:37.158Z,73.73
2019-03-23T08:09:07.522Z,68.60
2019-03-23T08:11:37.389Z,63.17
2019-03-23T08:14:07.191Z,67.27
2019-03-23T08:16:37.015Z,73.67
2019-03-23T08:19:06.859Z,77.40
2019-03-23T08:21:36.652Z,73.20
2019-03-23T08:24:06.467Z,73.23
2019-03-23T08:26:36.302Z,66.00
2019-03-23T08:29:06.086Z,74.87
2019-03-23T08:31:35.900Z,69.77
2019-03-23T08:34:05.698Z,74.50
2019-03-23T08:36:35.508Z,67.23
2019-03-23T08:39:06.518Z,64.00
2019-03-23T08:41:36.369Z,69.97
2019-03-23T08:44:06.174Z,73.23
2019-03-23T08:46:36.856Z,64.67
2019-03-23T08:49:07.463Z,59.17
2019-03-23T08:51:38.092Z,66.17
2019-03-23T08:54:08.722Z,57.63
2019-03-23T08:56:39.341Z,60.03
2019-03-23T08:59:09.962Z,65.43
2019-03-23T09:01:40.578Z,65.40
2019-03-23T09:04:11.259Z,78.93
2019-03-23T09:06:41.892Z,64.57
2019-03-23T09:09:12.498Z,71.30
2019-03-23T09:11:43.102Z,70.77
2019-03-23T09:14:13.698Z,61.60
2019-03-23T09:16:44.311Z,61.00
2019-03-23T09:19:14.936Z,64.87
2019-03-23T09:21:46.564Z,65.20
2019-03-23T09:24:17.168Z,71.77
2019-03-23T09:26:47.812Z,63.27
2019-03-23T09:29:18.449Z,69.97
2019-03-23T09:31:49.020Z,71.00
2019-03-23T09:34:19.634Z,70.87
2019-03-23T09:36:50.216Z,65.00
2019-03-23T09:39:20.857Z,73.20
2019-03-23T09:41:51.468Z,62.80
2019-03-23T09:44:22.070Z,64.10
2019-03-23T09:46:52.644Z,65.40
2019-03-23T09:49:23.289Z,67.53
2019-03-23T09:51:53.914Z,60.93
2019-03-23T09:54:24.553Z,70.87
2019-03-23T09:56:55.144Z,57.20
2019-03-23T09:59:25.765Z,63.37
2019-03-23T10:01:56.352Z,61.00
2019-03-23T10:04:27.044Z,60.67
2019-03-23T10:06:57.624Z,56.17
2019-03-23T10:09:28.377Z,51.07
2019-03-23T10:11:59.291Z,54.43
2019-03-23T10:14:29.990Z,54.93
2019-03-23T10:17:00.678Z,59.20
2019-03-23T10:19:31.296Z,54.77
2019-03-23T10:22:01.981Z,50.90
2019-03-23T10:24:32.674Z,47.37
2019-03-23T10:27:03.234Z,48.03
2019-03-23T10:29:33.848Z,50.30
2019-03-23T10:32:04.440Z,50.30
2019-03-23T10:34:35.053Z,47.10
2019-03-23T10:37:05.693Z,51.60
2019-03-23T10:39:36.386Z,52.30
2019-03-23T10:42:07.006Z,48.80
2019-03-23T10:44:37.583Z,48.37
2019-03-23T10:47:08.200Z,52.40
2019-03-23T10:49:38.859Z,41.60
2019-03-23T10:52:09.452Z,45.30
2019-03-23T10:54:40.087Z,48.17
2019-03-23T10:57:10.687Z,47.90
2019-03-23T10:59:41.322Z,50.07
2019-03-23T11:02:11.916Z,43.97
2019-03-23T11:04:42.558Z,51.17
2019-03-23T11:07:13.120Z,51.67
2019-03-23T11:09:43.866Z,44.30
2019-03-23T11:12:14.505Z,45.43
2019-03-23T11:14:45.206Z,41.97
2019-03-23T11:17:15.798Z,48.77
2019-03-23T11:19:46.437Z,50.07
2019-03-23T11:22:16.989Z,57.10
2019-03-23T11:24:47.588Z,40.07
2019-03-23T11:27:18.203Z,44.23
2019-03-23T11:29:48.796Z,46.90
2019-03-23T11:32:19.368Z,47.20
2019-03-23T11:34:50.001Z,49.77
2019-03-23T11:37:20.666Z,48.03
2019-03-23T11:39:51.463Z,51.13
2019-03-23T11:42:22.060Z,48.57
2019-03-23T11:44:55.697Z,48.23
2019-03-23T11:47:26.498Z,49.77
2019-03-23T11:49:57.228Z,40.10
2019-03-23T11:52:27.887Z,53.47
2019-03-23T11:54:58.578Z,46.53
2019-03-23T11:57:29.184Z,48.77
2019-03-23T11:59:59.844Z,46.50
2019-03-23T12:02:30.509Z,50.43
2019-03-23T12:05:01.976Z,43.70
2019-03-23T12:07:33.218Z,44.10
2019-03-23T12:10:04.353Z,47.83
2019-03-23T12:12:34.961Z,44.20
2019-03-23T12:15:06.209Z,43.13
2019-03-23T12:17:36.946Z,47.33
2019-03-23T12:20:07.819Z,48.23
2019-03-23T12:22:38.443Z,45.80
2019-03-23T12:25:09.627Z,43.87
2019-03-23T12:27:40.292Z,50.03
2019-03-23T12:30:12.728Z,46.10
2019-03-23T12:32:43.377Z,54.90
2019-03-23T12:35:13.971Z,48.27
2019-03-23T12:37:44.568Z,47.53
2019-03-23T12:40:15.287Z,47.57
2019-03-23T12:42:45.897Z,48.53
2019-03-23T12:45:16.619Z,45.53
2019-03-23T12:47:47.211Z,47.37
2019-03-23T12:50:17.789Z,51.37
2019-03-23T12:52:48.567Z,44.47
2019-03-23T12:55:19.170Z,40.87
2019-03-23T12:57:49.757Z,44.33
2019-03-23T13:00:20.743Z,52.93
2019-03-23T13:02:51.359Z,49.33
2019-03-23T13:05:21.963Z,51.90
2019-03-23T13:07:52.587Z,59.40
2019-03-23T13:10:23.188Z,55.30
2019-03-23T13:12:53.841Z,49.53
2019-03-23T13:15:24.429Z,47.67
2019-03-23T13:17:55.051Z,48.77
2019-03-23T13:20:25.726Z,52.67
2019-03-23T13:22:56.333Z,48.67
2019-03-23T13:25:26.991Z,45.83
2019-03-23T13:27:57.555Z,50.63
2019-03-23T13:30:28.160Z,51.77
2019-03-23T13:32:58.731Z,46.60
2019-03-23T13:35:29.281Z,52.47
2019-03-23T13:37:59.916Z,54.90
2019-03-23T13:40:30.529Z,53.33
2019-03-23T13:43:01.159Z,59.33
2019-03-23T13:45:31.763Z,57.00
2019-03-23T13:48:03.093Z,60.93
2019-03-23T13:50:33.743Z,61.50
2019-03-23T13:53:04.349Z,56.07
2019-03-23T13:55:35.545Z,55.07
2019-03-23T13:58:10.985Z,57.67
2019-03-23T14:00:41.661Z,52.90
2019-03-23T14:03:12.374Z,60.77
2019-03-23T14:05:43.083Z,55.83
2019-03-23T14:08:13.726Z,63.73
2019-03-23T14:10:44.382Z,62.60
2019-03-23T14:13:16.484Z,62.77
2019-03-23T14:15:47.062Z,58.43
2019-03-23T14:18:17.684Z,61.67
2019-03-23T14:20:48.247Z,61.20
2019-03-23T14:23:18.981Z,57.90
2019-03-23T14:25:49.555Z,54.63
2019-03-23T14:28:20.193Z,60.90
2019-03-23T14:30:50.797Z,53.73
2019-03-23T14:33:21.439Z,52.40
2019-03-23T14:35:52.130Z,47.97
2019-03-23T14:38:22.810Z,47.03
2019-03-23T14:40:53.487Z,49.17
2019-03-23T14:43:24.063Z,44.57
2019-03-23T14:45:54.640Z,46.27
2019-03-23T14:48:25.252Z,46.37
2019-03-23T14:50:55.793Z,48.65
2019-03-23T14:53:26.449Z,46.90
2019-03-23T14:55:57.046Z,37.50
2019-03-23T14:58:27.694Z,48.65
2019-03-23T15:00:58.271Z,41.17
2019-03-23T15:03:28.968Z,37.17
2019-03-23T15:05:59.581Z,37.27
2019-03-23T15:08:31.881Z,41.07
2019-03-23T15:11:02.509Z,37.33
2019-03-23T15:13:33.124Z,43.67
2019-03-23T15:16:03.700Z,39.00
2019-03-23T15:18:34.294Z,39.93
2019-03-23T15:21:04.902Z,42.07
2019-03-23T15:23:35.533Z,31.00
2019-03-23T15:26:06.120Z,30.50
2019-03-23T15:28:36.742Z,37.43
2019-03-23T15:31:07.290Z,36.47
2019-03-23T15:33:37.919Z,32.63
2019-03-23T15:36:08.468Z,36.07
2019-03-23T15:38:39.122Z,27.00
2019-03-23T15:41:09.711Z,27.90
2019-03-23T15:43:40.333Z,32.07
2019-03-23T15:46:10.986Z,26.60
2019-03-23T15:48:41.552Z,27.13
2019-03-23T15:51:12.152Z,35.60
2019-03-23T15:53:42.758Z,29.93
2019-03-23T15:56:13.339Z,32.77
2019-03-23T15:58:43.966Z,29.40
2019-03-23T16:01:14.538Z,28.70
2019-03-23T16:03:45.180Z,34.47
2019-03-23T16:06:15.834Z,28.80
2019-03-23T16:08:46.475Z,30.30
2019-03-23T16:11:17.092Z,26.50
2019-03-23T16:13:47.725Z,35.30
2019-03-23T16:16:18.294Z,31.53
2019-03-23T16:18:48.905Z,30.07
2019-03-23T16:21:19.445Z,27.00
2019-03-23T16:23:50.046Z,26.80
2019-03-23T16:26:20.647Z,27.53
2019-03-23T16:28:51.288Z,25.73
2019-03-23T16:31:21.877Z,20.27
2019-03-23T16:33:52.498Z,15.07
2019-03-23T16:36:23.045Z,12.63
2019-03-23T16:38:53.673Z,7.30
2019-03-23T16:41:24.366Z,9.03
2019-03-23T16:43:55.001Z,7.40
2019-03-23T16:46:25.582Z,4.37
2019-03-23T16:48:56.192Z,3.03
2019-03-23T16:51:26.744Z,5.47
2019-03-23T16:53:57.396Z,6.37
2019-03-23T16:56:28.000Z,4.00
2019-03-23T16:58:58.683Z,6.37
2019-03-23T17:01:29.312Z,4.10
2019-03-23T17:03:59.941Z,3.53
2019-03-23T17:06:30.706Z,6.27
2019-03-23T17:09:01.287Z,8.37
2019-03-23T17:11:31.998Z,6.20
2019-03-23T17:14:02.589Z,9.57
2019-03-23T17:16:33.194Z,7.13
2019-03-23T17:19:03.786Z,4.53
2019-03-23T17:21:34.431Z,6.80
2019-03-23T17:24:04.999Z,142.23
2019-03-23T17:26:35.685Z,9.53
2019-03-23T17:29:06.315Z,7.23
2019-03-23T17:31:36.928Z,8.43
2019-03-23T17:34:07.489Z,8.40
2019-03-23T17:36:38.092Z,6.97
2019-03-23T17:39:08.725Z,8.70
2019-03-23T17:41:39.351Z,10.37
2019-03-23T17:44:09.909Z,11.03
2019-03-23T17:46:40.477Z,9.20
2019-03-23T17:49:11.053Z,12.50
2019-03-23T17:51:41.661Z,7.50
2019-03-23T17:54:12.229Z,9.30
2019-03-23T17:56:42.859Z,6.93
2019-03-23T17:59:13.439Z,11.00
2019-03-23T18:01:44.158Z,6.73
2019-03-23T18:04:14.795Z,9.60
2019-03-23T18:06:45.415Z,10.40
2019-03-23T18:09:15.995Z,9.87
2019-03-23T18:11:46.625Z,9.60
2019-03-23T18:14:17.760Z,6.43
2019-03-23T18:16:48.309Z,5.47
2019-03-23T18:19:18.898Z,5.60
2019-03-23T18:21:49.514Z,11.37
2019-03-23T18:24:20.384Z,11.53
2019-03-23T18:26:51.045Z,7.50
2019-03-23T18:29:21.662Z,9.57
2019-03-23T18:31:52.319Z,8.00
2019-03-23T18:34:22.871Z,7.67
2019-03-23T18:36:53.625Z,9.90
2019-03-23T18:39:24.202Z,9.27
2019-03-23T18:41:54.890Z,9.50
2019-03-23T18:44:25.487Z,9.23
2019-03-23T18:46:56.090Z,11.60
2019-03-23T18:49:26.663Z,8.20
2019-03-23T18:51:57.266Z,8.47
2019-03-23T18:54:27.859Z,13.83
2019-03-23T18:56:58.499Z,12.13
2019-03-23T18:59:29.063Z,10.03
2019-03-23T19:01:59.651Z,8.40
2019-03-23T19:04:30.294Z,12.70
2019-03-23T19:07:01.736Z,11.50
2019-03-23T19:09:32.329Z,12.73
2019-03-23T19:12:02.898Z,7.00
2019-03-23T19:14:33.495Z,6.20
2019-03-23T19:17:04.134Z,13.77
2019-03-23T19:19:34.659Z,13.77
2019-03-23T19:22:05.400Z,13.77
2019-03-23T19:24:35.969Z,8.77
2019-03-23T19:27:06.620Z,10.97
2019-03-23T19:29:37.227Z,11.87
2019-03-23T19:32:07.875Z,12.20
2019-03-23T19:34:38.451Z,7.50
2019-03-23T19:37:09.032Z,10.07
2019-03-23T19:39:39.582Z,18.47
2019-03-23T19:42:10.604Z,6.30
2019-03-23T19:44:41.204Z,14.90
2019-03-23T19:47:11.875Z,12.73
2019-03-23T19:49:42.478Z,9.80
2019-03-23T19:52:13.072Z,12.80
2019-03-23T19:54:43.649Z,12.73
2019-03-23T19:57:14.263Z,11.77
2019-03-23T19:59:44.820Z,8.50
2019-03-23T20:02:15.394Z,12.57
2019-03-23T20:04:45.988Z,15.13
2019-03-23T20:07:16.550Z,13.57
2019-03-23T20:09:47.191Z,9.77
2019-03-23T20:12:17.783Z,10.00
2019-03-23T20:14:48.360Z,11.33
2019-03-23T20:17:18.938Z,11.77
2019-03-23T20:19:49.524Z,11.20
2019-03-23T20:22:20.104Z,7.33
2019-03-23T20:24:50.689Z,7.40
2019-03-23T20:27:21.239Z,11.97
2019-03-23T20:29:51.849Z,17.93
2019-03-23T20:32:22.395Z,14.70
2019-03-23T20:34:53.009Z,14.23
2019-03-23T20:37:23.642Z,15.03
2019-03-23T20:39:54.248Z,14.83
2019-03-23T20:42:24.810Z,12.93
2019-03-23T20:44:55.418Z,13.60
2019-03-23T20:47:25.983Z,13.47
2019-03-23T20:49:56.584Z,15.27
2019-03-23T20:52:27.150Z,11.90
2019-03-23T20:54:57.791Z,21.13
2019-03-23T20:57:36.872Z,22.47
2019-03-23T21:00:00.790Z,12.93
2019-03-23T21:02:31.379Z,16.10
2019-03-23T21:05:02.680Z,8.67
2019-03-23T21:07:33.274Z,14.40
2019-03-23T21:10:03.969Z,14.57
2019-03-23T21:12:34.562Z,16.77
2019-03-23T21:15:05.288Z,16.03
2019-03-23T21:17:35.864Z,9.57
2019-03-23T21:20:06.643Z,13.93
2019-03-23T21:22:37.255Z,16.23
2019-03-23T21:25:08.230Z,18.80
2019-03-23T21:27:38.796Z,19.80
2019-03-23T21:30:11.908Z,11.10
2019-03-23T21:32:42.457Z,26.93
2019-03-23T21:35:15.578Z,15.30
2019-03-23T21:37:45.435Z,10.27
2019-03-23T21:40:16.046Z,19.00
2019-03-23T21:42:46.642Z,14.37
2019-03-23T21:45:17.421Z,9.40
2019-03-23T21:47:47.975Z,15.83
2019-03-23T21:50:18.571Z,15.10
2019-03-23T21:52:49.178Z,21.07
2019-03-23T21:55:19.781Z,13.90
2019-03-23T21:57:50.347Z,12.10
2019-03-23T22:00:39.750Z,15.70
2019-03-23T22:03:10.407Z,14.10
2019-03-23T22:05:41.041Z,12.30
2019-03-23T22:08:11.610Z,15.00
2019-03-23T22:10:42.568Z,11.33
2019-03-23T22:13:13.158Z,13.43
2019-03-23T22:15:43.773Z,12.83
2019-03-23T22:18:14.364Z,12.13
2019-03-23T22:20:44.968Z,16.10
2019-03-23T22:23:15.558Z,21.00
2019-03-23T22:25:46.210Z,12.37
2019-03-23T22:28:16.796Z,18.23
2019-03-23T22:30:47.398Z,20.33
2019-03-23T22:33:18.021Z,16.43
2019-03-23T22:35:48.703Z,14.50
2019-03-23T22:38:19.255Z,17.03
2019-03-23T22:40:49.882Z,13.37
2019-03-23T22:43:20.492Z,18.17
2019-03-23T22:45:51.128Z,16.07
2019-03-23T22:48:21.797Z,13.07
2019-03-23T22:50:52.460Z,18.47
2019-03-23T22:53:23.048Z,18.97
2019-03-23T22:55:53.700Z,20.50
2019-03-23T22:58:24.384Z,17.70
2019-03-23T23:00:56.222Z,12.70
2019-03-23T23:03:26.856Z,14.30
2019-03-23T23:05:57.466Z,13.60
2019-03-23T23:08:28.108Z,9.30
2019-03-23T23:10:58.913Z,12.20
2019-03-23T23:13:29.605Z,13.70
2019-03-23T23:16:00.217Z,19.43
2019-03-23T23:18:30.821Z,15.23
2019-03-23T23:21:01.379Z,15.50
2019-03-23T23:23:32.061Z,9.70
2019-03-23T23:26:02.816Z,10.80
2019-03-23T23:28:33.374Z,16.10
2019-03-23T23:31:03.944Z,13.10
2019-03-23T23:33:34.646Z,15.97
2019-03-23T23:36:05.493Z,16.40
2019-03-23T23:38:36.118Z,8.67
2019-03-23T23:41:06.668Z,15.33
2019-03-23T23:43:37.717Z,17.50
2019-03-23T23:46:08.433Z,18.10
2019-03-23T23:48:39.084Z,17.60
2019-03-23T23:51:09.611Z,15.70
2019-03-23T23:53:40.289Z,16.37
2019-03-23T23:56:10.900Z,16.77
2019-03-23T23:58:41.497Z,11.97
